Time;durP1;ratioP1;P1;durP2;ratioP2;P2;SDS_P1;SDS_P2;PMS_P1;PMS_P2;Temp;Humidity;BMP_temperature;BMP_pressure;BME280_temperature;BME280_humidity;BME280_pressure;Samples;Min_cycle;Max_cycle;Signal;HPM_P1;HPM_P2
2021/12/24 00:02:02;;;;;;;10.75;7.15;;;10.50;99.90;;;;;;5048912;28;20379;-75
2021/12/24 00:05:07;;;;;;;25.88;11.73;;;10.40;99.90;;;;;;5049393;28;20052;-75
2021/12/24 00:08:11;;;;;;;14.82;6.82;;;10.30;99.90;;;;;;5029557;28;20048;-76
2021/12/24 00:11:17;;;;;;;11.15;7.18;;;10.30;99.90;;;;;;5043627;28;20044;-76
2021/12/24 00:14:22;;;;;;;15.23;7.65;;;10.30;99.90;;;;;;5048983;28;20042;-76
2021/12/24 00:17:30;;;;;;;14.20;7.25;;;10.40;99.90;;;;;;5029270;28;20044;-75
2021/12/24 00:37:48;;;;;;;6.82;3.88;;;10.70;99.90;;;;;;5051565;28;19915;-75
2021/12/24 00:40:55;;;;;;;12.75;5.15;;;10.90;99.90;;;;;;5053300;28;20052;-75
2021/12/24 00:43:59;;;;;;;10.88;4.85;;;11.00;99.90;;;;;;5052722;28;20582;-75
2021/12/24 00:47:03;;;;;;;11.98;5.13;;;10.90;99.90;;;;;;5052733;28;20240;-76
2021/12/24 00:50:12;;;;;;;11.75;5.20;;;10.90;99.90;;;;;;5052510;28;20052;-75
2021/12/24 00:56:43;;;;;;;11.48;6.03;;;10.90;99.90;;;;;;5039532;28;20506;-76
2021/12/24 00:59:48;;;;;;;13.65;5.28;;;10.80;99.90;;;;;;5051926;28;20382;-75
2021/12/24 01:02:56;;;;;;;8.40;4.85;;;10.80;99.90;;;;;;5052516;28;20060;-76
2021/12/24 01:06:00;;;;;;;10.52;5.22;;;10.70;99.90;;;;;;5051829;28;20048;-76
2021/12/24 01:09:04;;;;;;;23.42;7.72;;;10.60;99.90;;;;;;5051710;28;20044;-77
2021/12/24 01:12:09;;;;;;;12.68;5.15;;;10.40;99.90;;;;;;5052890;28;20056;-77
2021/12/24 01:15:14;;;;;;;13.40;5.53;;;10.40;99.90;;;;;;5031909;28;20040;-77
2021/12/24 01:18:31;;;;;;;10.73;5.65;;;10.40;99.90;;;;;;5055624;28;20071;-77
2021/12/24 01:38:09;;;;;;;9.07;5.80;;;10.20;99.90;;;;;;5043161;28;20036;-77
2021/12/24 01:42:39;;;;;;;10.10;6.63;;;10.20;99.90;;;;;;5059629;28;20060;-76
2021/12/24 01:44:38;;;;;;;23.50;12.95;;;10.30;99.90;;;;;;5051350;28;20040;-76
2021/12/24 01:47:45;;;;;;;16.05;9.20;;;10.10;99.90;;;;;;5052458;28;20327;-76
2021/12/24 01:50:51;;;;;;;15.02;9.65;;;9.80;99.90;;;;;;5050453;28;20044;-76
2021/12/24 01:53:57;;;;;;;16.63;9.35;;;9.70;99.90;;;;;;5050460;28;20052;-76
2021/12/24 01:57:03;;;;;;;10.43;7.70;;;9.80;99.90;;;;;;5051149;28;20491;-76
2021/12/24 02:00:11;;;;;;;13.63;8.77;;;9.90;99.90;;;;;;5050916;28;20060;-76
2021/12/24 02:03:19;;;;;;;29.45;17.70;;;9.90;99.90;;;;;;5050926;28;20056;-75
2021/12/24 02:06:23;;;;;;;24.95;12.85;;;9.70;99.90;;;;;;5062615;28;20048;-76
2021/12/24 02:09:27;;;;;;;16.88;10.07;;;9.60;99.90;;;;;;5030731;28;20207;-76
2021/12/24 02:12:34;;;;;;;22.02;11.10;;;9.60;99.90;;;;;;5047856;28;20048;-76
2021/12/24 02:29:04;;;;;;;20.02;9.70;;;9.90;99.90;;;;;;5049574;28;20047;-77
2021/12/24 02:32:07;;;;;;;19.45;10.23;;;9.90;99.90;;;;;;5051098;28;20044;-77
2021/12/24 02:35:12;;;;;;;21.35;11.02;;;9.90;99.90;;;;;;5049527;28;20498;-76
2021/12/24 02:38:16;;;;;;;16.83;10.43;;;9.90;99.90;;;;;;5048917;28;20048;-76
2021/12/24 02:41:20;;;;;;;14.65;8.88;;;9.90;99.90;;;;;;5050616;28;20407;-76
2021/12/24 02:44:24;;;;;;;14.30;8.65;;;10.00;99.90;;;;;;5048513;28;20052;-76
2021/12/24 02:47:41;;;;;;;16.70;8.77;;;10.00;99.90;;;;;;5049227;28;20114;-76
2021/12/24 02:54:07;;;;;;;14.52;7.63;;;10.00;99.90;;;;;;5029926;28;20068;-76
2021/12/24 02:57:15;;;;;;;12.43;7.38;;;10.00;99.90;;;;;;5046850;28;20047;-75
2021/12/24 03:00:25;;;;;;;20.65;8.57;;;10.00;99.90;;;;;;5048729;28;20047;-76
2021/12/24 03:03:29;;;;;;;16.58;7.65;;;10.10;99.90;;;;;;5050684;28;20043;-76
2021/12/24 03:06:43;;;;;;;13.88;7.60;;;10.10;99.90;;;;;;5049980;28;20040;-76
2021/12/24 03:09:47;;;;;;;10.63;7.28;;;10.10;99.90;;;;;;5048584;28;20494;-76
2021/12/24 03:12:52;;;;;;;11.77;7.65;;;10.10;99.90;;;;;;5049851;28;20044;-75
2021/12/24 03:15:57;;;;;;;11.38;6.25;;;10.10;99.90;;;;;;5049370;28;20406;-75
2021/12/24 03:19:04;;;;;;;13.02;6.50;;;10.10;99.90;;;;;;5059806;28;20052;-75
2021/12/24 03:25:14;;;;;;;13.13;7.05;;;10.10;99.90;;;;;;5049882;28;20127;-76
2021/12/24 03:28:18;;;;;;;9.35;5.90;;;10.10;99.90;;;;;;5048759;28;20047;-75
2021/12/24 03:31:22;;;;;;;17.67;9.38;;;10.20;99.90;;;;;;5049010;28;20562;-75
2021/12/24 03:34:27;;;;;;;25.70;13.40;;;10.10;99.90;;;;;;5050853;28;20044;-76
2021/12/24 03:37:31;;;;;;;10.02;5.93;;;10.20;99.90;;;;;;5052365;28;20052;-75
2021/12/24 03:40:36;;;;;;;9.52;6.05;;;10.20;99.90;;;;;;5048745;28;20052;-76
2021/12/24 03:43:40;;;;;;;10.85;5.68;;;10.20;99.90;;;;;;5048981;28;20055;-76
2021/12/24 03:46:57;;;;;;;6.47;4.60;;;10.20;99.90;;;;;;5048325;28;20044;-76
2021/12/24 03:50:07;;;;;;;9.90;4.43;;;10.20;99.90;;;;;;5047975;28;20044;-75
2021/12/24 03:56:36;;;;;;;6.38;4.15;;;10.10;99.90;;;;;;5049206;28;20055;-75
2021/12/24 03:59:40;;;;;;;6.00;4.43;;;10.10;99.90;;;;;;5047835;28;20055;-75
2021/12/24 04:03:02;;;;;;;6.00;4.20;;;10.10;99.90;;;;;;5048445;28;20408;-75
2021/12/24 04:06:18;;;;;;;8.35;4.50;;;10.20;99.90;;;;;;5049591;28;20044;-75
2021/12/24 04:09:55;;;;;;;12.32;7.30;;;10.20;99.90;;;;;;5048061;28;20064;-75
2021/12/24 04:13:19;;;;;;;4.63;3.17;;;10.10;99.90;;;;;;5048927;28;20048;-75
2021/12/24 04:16:23;;;;;;;5.10;4.18;;;10.20;99.90;;;;;;5048353;28;20048;-75
2021/12/24 04:24:51;;;;;;;2.78;2.38;;;10.20;99.90;;;;;;5048160;28;20052;-75
2021/12/24 04:26:25;;;;;;;2.20;2.00;;;10.20;99.90;;;;;;5048202;28;20044;-75
2021/12/24 04:29:30;;;;;;;4.25;2.30;;;10.20;99.90;;;;;;5047721;28;20036;-75
2021/12/24 04:36:00;;;;;;;5.22;2.72;;;10.20;99.90;;;;;;5048130;28;20055;-75
2021/12/24 05:02:46;;;;;;;1.75;1.40;;;10.30;99.90;;;;;;5047715;28;20052;-76
2021/12/24 05:08:51;;;;;;;2.42;1.70;;;10.20;99.90;;;;;;5047998;28;20048;-76
2021/12/24 05:11:55;;;;;;;2.88;2.00;;;10.20;99.90;;;;;;5048744;28;20420;-75
2021/12/24 05:15:00;;;;;;;20.55;3.13;;;10.30;99.90;;;;;;5047431;28;20057;-75
2021/12/24 05:19:01;;;;;;;2.75;1.92;;;10.30;99.90;;;;;;5052695;28;20502;-75
2021/12/24 05:22:16;;;;;;;;;;;10.30;99.90;;;;;;5033342;28;20056;-75
2021/12/24 05:25:21;;;;;;;2.03;1.52;;;10.30;99.90;;;;;;5062420;28;19924;-75
2021/12/24 05:28:26;;;;;;;3.33;2.00;;;10.30;99.90;;;;;;5050989;28;20040;-75
2021/12/24 05:31:31;;;;;;;3.00;1.70;;;10.30;99.90;;;;;;5051236;28;20052;-74
2021/12/24 05:34:35;;;;;;;2.45;2.00;;;10.30;99.90;;;;;;5051986;28;20052;-75
2021/12/24 05:37:39;;;;;;;2.55;1.80;;;10.30;99.90;;;;;;5050789;28;20036;-75
2021/12/24 05:40:44;;;;;;;2.60;2.00;;;10.30;99.90;;;;;;5051979;28;20055;-75
2021/12/24 05:43:49;;;;;;;3.72;2.60;;;10.30;99.90;;;;;;5051721;28;20108;-75
2021/12/24 05:46:53;;;;;;;4.70;2.42;;;10.30;99.90;;;;;;5051122;28;20048;-75
2021/12/24 05:50:13;;;;;;;2.42;2.20;;;10.30;99.90;;;;;;5050993;28;20039;-75
2021/12/24 05:53:20;;;;;;;24.95;3.75;;;10.30;99.90;;;;;;5052708;28;20072;-75
2021/12/24 05:56:34;;;;;;;3.03;2.40;;;10.30;99.90;;;;;;5050808;28;20039;-76
2021/12/24 05:59:48;;;;;;;3.38;2.25;;;10.40;99.90;;;;;;5050540;28;20056;-75
2021/12/24 06:02:52;;;;;;;3.67;2.33;;;10.40;99.90;;;;;;5051681;28;20044;-76
2021/12/24 06:05:57;;;;;;;2.88;2.38;;;10.40;99.90;;;;;;5051997;28;20044;-75
2021/12/24 06:09:01;;;;;;;4.68;2.33;;;10.40;99.90;;;;;;5051494;28;20040;-75
2021/12/24 06:12:05;;;;;;;3.90;2.75;;;10.40;99.90;;;;;;5052245;28;20052;-75
2021/12/24 06:15:10;;;;;;;3.78;2.90;;;10.40;99.90;;;;;;5051626;28;20407;-74
2021/12/24 06:18:26;;;;;;;15.50;3.58;;;10.40;99.90;;;;;;5051475;28;20395;-75
2021/12/24 06:21:30;;;;;;;4.28;2.38;;;10.40;99.90;;;;;;5051858;28;20032;-75
2021/12/24 06:24:34;;;;;;;4.22;3.00;;;10.40;99.90;;;;;;5032273;28;20510;-74
2021/12/24 06:27:39;;;;;;;4.28;3.30;;;10.40;99.90;;;;;;5046185;28;20044;-74
2021/12/24 06:30:44;;;;;;;6.53;3.85;;;10.40;99.90;;;;;;5051715;28;20387;-75
2021/12/24 06:33:48;;;;;;;5.57;3.92;;;10.40;99.90;;;;;;5032038;28;20471;-75
2021/12/24 06:36:53;;;;;;;9.45;4.22;;;10.50;99.90;;;;;;5048393;28;20044;-75
2021/12/24 06:39:57;;;;;;;6.28;3.65;;;10.50;99.90;;;;;;5050973;28;20052;-75
2021/12/24 06:43:02;;;;;;;7.25;3.75;;;10.50;99.90;;;;;;5051665;28;20036;-75
2021/12/24 06:46:11;;;;;;;5.97;3.88;;;10.50;99.90;;;;;;5051195;28;20044;-75
2021/12/24 06:49:17;;;;;;;5.18;3.58;;;10.60;99.90;;;;;;5050220;28;20048;-75
2021/12/24 06:52:21;;;;;;;6.22;3.70;;;10.60;99.90;;;;;;5051646;28;20056;-76
2021/12/24 06:55:25;;;;;;;5.00;3.20;;;10.60;99.90;;;;;;5049908;28;20044;-75
2021/12/24 06:58:34;;;;;;;10.43;3.42;;;10.60;99.90;;;;;;5049828;28;20036;-75
2021/12/24 07:01:37;;;;;;;7.50;3.95;;;10.60;99.90;;;;;;5050145;28;20044;-75
2021/12/24 07:04:43;;;;;;;6.70;3.50;;;10.60;99.90;;;;;;5050522;28;20052;-76
2021/12/24 07:07:48;;;;;;;9.35;5.78;;;10.60;99.90;;;;;;5050555;28;20047;-75
2021/12/24 07:10:52;;;;;;;8.95;4.07;;;10.60;99.90;;;;;;5051030;28;20506;-75
2021/12/24 07:13:56;;;;;;;7.07;4.70;;;10.60;99.90;;;;;;5031446;28;20052;-75
2021/12/24 07:17:00;;;;;;;11.38;5.82;;;10.60;99.90;;;;;;5046529;28;20063;-74
2021/12/24 07:20:04;;;;;;;30.38;7.07;;;10.60;99.90;;;;;;5050297;28;20052;-75
2021/12/24 07:23:08;;;;;;;15.00;6.85;;;10.50;99.90;;;;;;5050500;28;20143;-75
2021/12/24 07:26:14;;;;;;;16.65;8.38;;;10.60;99.90;;;;;;5050149;28;20578;-74
2021/12/24 07:29:18;;;;;;;13.10;7.40;;;10.60;99.90;;;;;;5049962;28;20503;-74
2021/12/24 07:32:22;;;;;;;16.25;8.48;;;10.60;99.90;;;;;;5051155;28;20048;-74
2021/12/24 07:35:26;;;;;;;17.95;8.48;;;10.60;99.90;;;;;;5050179;28;20039;-74
2021/12/24 07:38:30;;;;;;;13.35;8.40;;;10.60;99.90;;;;;;5049731;28;20047;-74
2021/12/24 07:41:34;;;;;;;16.50;9.02;;;10.60;99.90;;;;;;5050637;28;20048;-75
2021/12/24 07:44:45;;;;;;;15.73;8.40;;;10.60;99.90;;;;;;5049484;28;20051;-75
2021/12/24 07:48:06;;;;;;;16.73;8.32;;;10.60;99.90;;;;;;5048723;28;20040;-75
2021/12/24 07:54:53;;;;;;;20.33;8.65;;;10.60;99.90;;;;;;4990561;28;20049;-75
2021/12/24 07:57:58;;;;;;;13.73;8.48;;;10.60;99.90;;;;;;5046815;28;20392;-75
2021/12/24 08:01:07;;;;;;;13.88;8.38;;;10.60;99.90;;;;;;5049616;28;20048;-74
2021/12/24 08:04:11;;;;;;;16.10;8.75;;;10.60;99.90;;;;;;5049152;28;20036;-75
2021/12/24 08:07:15;;;;;;;14.88;8.27;;;10.60;99.90;;;;;;5049802;28;20427;-75
2021/12/24 08:10:21;;;;;;;15.65;7.78;;;10.60;99.90;;;;;;5049166;28;20044;-75
2021/12/24 08:13:25;;;;;;;14.35;7.65;;;10.60;99.90;;;;;;5049585;28;20067;-75
2021/12/24 08:16:30;;;;;;;15.52;8.07;;;10.60;99.90;;;;;;5050135;28;20059;-75
2021/12/24 08:19:34;;;;;;;14.25;7.53;;;10.70;99.90;;;;;;5049097;28;20107;-75
2021/12/24 08:22:38;;;;;;;12.50;7.13;;;10.70;99.90;;;;;;5049750;28;20048;-75
2021/12/24 08:25:42;;;;;;;14.73;7.40;;;10.80;99.90;;;;;;5030132;28;20056;-75
2021/12/24 08:28:47;;;;;;;10.90;7.07;;;10.90;99.90;;;;;;5046239;28;20032;-75
2021/12/24 08:31:52;;;;;;;13.50;6.35;;;10.90;99.90;;;;;;5049240;28;20047;-75
2021/12/24 08:34:56;;;;;;;11.57;6.55;;;10.90;99.90;;;;;;5049318;28;20048;-74
2021/12/24 08:38:00;;;;;;;10.75;6.57;;;11.00;99.90;;;;;;5048877;28;20048;-75
2021/12/24 08:41:04;;;;;;;13.00;6.55;;;11.00;99.90;;;;;;5049187;28;20060;-75
2021/12/24 08:44:08;;;;;;;13.70;7.70;;;11.00;99.90;;;;;;5050176;28;20479;-75
2021/12/24 08:47:12;;;;;;;14.88;6.78;;;11.00;99.90;;;;;;5049457;28;20392;-75
2021/12/24 08:50:16;;;;;;;15.23;7.25;;;11.10;99.90;;;;;;5048829;28;20036;-74
2021/12/24 08:53:21;;;;;;;16.45;6.65;;;11.10;99.90;;;;;;5053872;28;20052;-75
2021/12/24 08:56:25;;;;;;;14.32;6.07;;;11.20;99.90;;;;;;5053374;28;20047;-74
2021/12/24 08:59:29;;;;;;;10.68;5.72;;;11.10;99.90;;;;;;5054344;28;20056;-75
2021/12/24 09:02:33;;;;;;;13.90;6.30;;;11.20;99.90;;;;;;5053054;28;20048;-75
2021/12/24 09:05:37;;;;;;;14.93;6.10;;;11.40;99.90;;;;;;5033603;28;20048;-75
2021/12/24 09:08:44;;;;;;;13.07;6.07;;;11.50;99.90;;;;;;5046542;28;20044;-75
2021/12/24 09:11:49;;;;;;;11.32;4.82;;;11.60;99.90;;;;;;5053027;28;20518;-74
2021/12/24 09:14:53;;;;;;;10.63;5.10;;;11.60;99.90;;;;;;5033645;28;20049;-75
2021/12/24 09:17:59;;;;;;;8.70;4.68;;;11.70;99.90;;;;;;5049158;28;20056;-74
2021/12/24 09:21:11;;;;;;;13.32;5.45;;;11.70;99.90;;;;;;5051887;28;20044;-75
2021/12/24 09:24:18;;;;;;;11.88;5.18;;;11.80;99.90;;;;;;5053012;28;20040;-74
2021/12/24 09:27:23;;;;;;;11.35;5.00;;;11.90;99.90;;;;;;5052507;28;20395;-74
2021/12/24 09:30:30;;;;;;;11.38;5.95;;;12.00;99.90;;;;;;5052306;28;20044;-74
2021/12/24 09:33:35;;;;;;;18.85;6.50;;;11.70;99.90;;;;;;5052828;28;20072;-74
2021/12/24 09:36:39;;;;;;;24.58;9.32;;;11.80;99.90;;;;;;5050554;28;20416;-75
2021/12/24 09:39:43;;;;;;;22.08;9.75;;;11.80;99.90;;;;;;5051820;28;20048;-75
2021/12/24 09:42:48;;;;;;;12.27;6.03;;;12.00;99.90;;;;;;5052693;28;20334;-75
2021/12/24 09:45:52;;;;;;;14.85;5.38;;;12.30;99.90;;;;;;5052468;28;20124;-75
2021/12/24 09:48:58;;;;;;;12.90;6.28;;;12.40;99.90;;;;;;5051593;28;20039;-75
2021/12/24 09:52:04;;;;;;;12.77;4.90;;;12.50;99.90;;;;;;5052539;28;20048;-74
2021/12/24 09:55:15;;;;;;;13.90;5.50;;;12.20;99.90;;;;;;5032596;28;20048;-74
2021/12/24 09:58:19;;;;;;;10.63;5.80;;;12.20;99.90;;;;;;5048602;28;20048;-75
2021/12/24 10:01:31;;;;;;;16.38;5.93;;;12.50;99.90;;;;;;5052077;28;20048;-75
2021/12/24 10:04:36;;;;;;;14.23;5.68;;;12.80;99.90;;;;;;5052087;28;20052;-75
2021/12/24 10:07:42;;;;;;;9.57;4.07;;;13.30;99.90;;;;;;5051823;28;20411;-75
2021/12/24 10:10:53;;;;;;;11.30;4.50;;;13.70;99.90;;;;;;5051396;28;20048;-75
2021/12/24 10:14:04;;;;;;;13.00;4.97;;;13.90;99.90;;;;;;5051232;28;20056;-75
2021/12/24 10:17:20;;;;;;;12.85;5.85;;;14.00;99.90;;;;;;5051728;28;20052;-75
2021/12/24 10:20:25;;;;;;;14.35;4.45;;;13.70;99.90;;;;;;5051089;28;20047;-74
2021/12/24 10:23:38;;;;;;;13.55;5.05;;;13.20;99.90;;;;;;5051085;28;20043;-75
2021/12/24 10:26:45;;;;;;;12.15;4.45;;;13.20;99.90;;;;;;5052263;28;20044;-75
2021/12/24 10:29:49;;;;;;;10.63;4.07;;;13.40;99.90;;;;;;5050457;28;20394;-75
2021/12/24 10:32:56;;;;;;;13.60;4.00;;;13.50;99.90;;;;;;5051043;28;20511;-75
2021/12/24 10:36:01;;;;;;;10.98;3.88;;;13.60;99.90;;;;;;5047874;28;20392;-75
2021/12/24 10:39:05;;;;;;;12.63;5.97;;;13.50;99.90;;;;;;5043603;28;20056;-74
2021/12/24 10:42:14;;;;;;;10.65;4.13;;;13.50;99.90;;;;;;5051598;28;20628;-75
2021/12/24 10:45:22;;;;;;;13.00;5.97;;;13.50;99.90;;;;;;5052264;28;20652;-74
2021/12/24 10:48:26;;;;;;;12.57;4.53;;;13.60;99.90;;;;;;5052531;28;20047;-74
2021/12/24 10:55:10;;;;;;;14.82;5.95;;;13.60;99.90;;;;;;5040575;28;20044;-74
2021/12/24 10:58:19;;;;;;;18.83;7.88;;;13.60;99.90;;;;;;5051783;28;20052;-74
2021/12/24 11:01:24;;;;;;;16.17;5.22;;;13.60;99.90;;;;;;5051104;28;20052;-75
2021/12/24 11:04:35;;;;;;;12.52;5.47;;;13.60;99.90;;;;;;5050530;28;20487;-75
2021/12/24 11:07:42;;;;;;;14.43;5.68;;;13.60;99.90;;;;;;5051563;28;20490;-75
2021/12/24 11:10:52;;;;;;;17.92;6.75;;;13.60;99.90;;;;;;5051401;28;20048;-75
2021/12/24 11:13:56;;;;;;;19.80;6.85;;;13.70;99.90;;;;;;5050912;28;20056;-75
2021/12/24 11:17:01;;;;;;;17.15;6.18;;;13.60;99.90;;;;;;5051646;28;20043;-75
2021/12/24 11:20:10;;;;;;;13.93;5.57;;;13.60;99.90;;;;;;5051169;28;20293;-76
2021/12/24 11:23:16;;;;;;;27.70;12.85;;;13.80;99.90;;;;;;5051197;28;20048;-76
2021/12/24 11:26:27;;;;;;;18.52;9.13;;;13.90;99.90;;;;;;5051242;28;20060;-75
2021/12/24 11:29:31;;;;;;;14.77;5.30;;;13.60;99.90;;;;;;5051052;28;20044;-75
2021/12/24 11:32:36;;;;;;;12.65;5.38;;;13.60;99.90;;;;;;5051310;28;20490;-75
2021/12/24 11:35:41;;;;;;;12.80;5.65;;;13.90;99.90;;;;;;5051094;28;20044;-75
2021/12/24 11:38:51;;;;;;;21.27;7.22;;;14.20;99.90;;;;;;5050788;28;20491;-76
2021/12/24 11:41:56;;;;;;;10.50;4.05;;;14.40;99.90;;;;;;5050966;28;20056;-75
2021/12/24 11:45:00;;;;;;;12.02;5.68;;;14.50;99.90;;;;;;5049188;28;20446;-75
2021/12/24 11:48:06;;;;;;;11.38;5.63;;;14.50;99.90;;;;;;5050274;28;20052;-74
2021/12/24 11:51:24;;;;;;;15.02;5.65;;;14.00;99.90;;;;;;5050675;28;20051;-75
2021/12/24 11:54:30;;;;;;;11.15;4.45;;;14.00;99.90;;;;;;5050518;28;20158;-75
2021/12/24 11:57:49;;;;;;;10.50;4.47;;;13.80;99.90;;;;;;5049908;28;20048;-75
2021/12/24 12:00:55;;;;;;;17.10;5.00;;;13.70;99.90;;;;;;5050013;28;20502;-74
2021/12/24 12:03:59;;;;;;;14.65;5.75;;;13.80;99.90;;;;;;5050133;28;20247;-75
2021/12/24 12:07:17;;;;;;;12.55;3.50;;;13.60;99.90;;;;;;5050210;28;20060;-74
2021/12/24 12:10:52;;;;;;;11.45;5.32;;;13.50;99.90;;;;;;5049754;28;20056;-74
2021/12/24 12:14:01;;;;;;;19.15;5.88;;;13.40;99.90;;;;;;5050124;28;20040;-75
2021/12/24 12:17:07;;;;;;;12.57;3.92;;;13.40;99.90;;;;;;5060532;28;20040;-75
2021/12/24 12:20:34;;;;;;;12.77;4.95;;;13.50;99.90;;;;;;5049587;28;20052;-75
2021/12/24 12:27:26;;;;;;;10.52;3.92;;;13.60;99.90;;;;;;5049194;28;20056;-75
2021/12/24 12:30:30;;;;;;;9.65;3.83;;;13.60;99.90;;;;;;5050168;28;20483;-76
2021/12/24 12:33:36;;;;;;;9.55;4.00;;;13.40;99.90;;;;;;5050378;28;20048;-75
2021/12/24 12:36:40;;;;;;;11.25;4.90;;;13.40;99.90;;;;;;5049968;28;20048;-76
2021/12/24 12:39:46;;;;;;;16.45;4.40;;;13.20;99.90;;;;;;5049621;28;20056;-76
2021/12/24 12:42:54;;;;;;;11.18;3.90;;;13.20;99.90;;;;;;5050140;28;20056;-76
2021/12/24 12:46:02;;;;;;;13.93;4.65;;;13.10;99.90;;;;;;5049937;28;20051;-75
2021/12/24 12:49:08;;;;;;;12.23;4.68;;;13.20;99.90;;;;;;5049484;28;20056;-75
2021/12/24 12:52:34;;;;;;;16.20;5.05;;;13.10;99.90;;;;;;5049913;28;20044;-76
2021/12/24 12:55:40;;;;;;;11.32;3.65;;;13.20;99.90;;;;;;5049607;28;20044;-75
2021/12/24 12:58:50;;;;;;;12.32;4.00;;;13.30;99.90;;;;;;5049263;28;20056;-76
2021/12/24 13:01:56;;;;;;;13.75;3.78;;;13.30;99.90;;;;;;5049562;28;20052;-76
2021/12/24 13:05:13;;;;;;;12.00;4.60;;;13.30;99.90;;;;;;5049389;28;20056;-75
2021/12/24 13:08:21;;;;;;;11.32;4.13;;;13.30;99.90;;;;;;5049052;28;20048;-75
2021/12/24 13:11:25;;;;;;;13.27;4.53;;;13.50;99.90;;;;;;5049546;28;20495;-76
2021/12/24 13:14:33;;;;;;;13.88;4.82;;;13.40;99.90;;;;;;5049224;28;20056;-76
2021/12/24 13:17:44;;;;;;;15.40;5.18;;;13.20;99.90;;;;;;5049379;28;20044;-76
2021/12/24 13:22:27;;;;;;;13.40;4.85;;;13.20;99.90;;;;;;5049327;28;20590;-76
2021/12/24 13:24:14;;;;;;;12.75;5.38;;;13.20;99.90;;;;;;5049108;28;20112;-76
2021/12/24 13:27:23;;;;;;;9.25;3.90;;;13.30;99.90;;;;;;5049349;28;20044;-75
2021/12/24 13:30:29;;;;;;;11.95;4.40;;;13.10;99.90;;;;;;5048309;28;20040;-76
2021/12/24 13:33:35;;;;;;;13.65;4.55;;;13.00;99.90;;;;;;5049411;28;20396;-76
2021/12/24 13:36:40;;;;;;;14.02;3.97;;;13.10;99.90;;;;;;5049590;28;20048;-75
2021/12/24 13:39:52;;;;;;;16.10;4.10;;;12.90;99.90;;;;;;5052436;28;20064;-75
2021/12/24 13:43:06;;;;;;;8.07;4.13;;;12.80;99.90;;;;;;5052874;28;20116;-75
2021/12/24 13:46:11;;;;;;;16.95;4.93;;;12.80;99.90;;;;;;5052620;28;20060;-76
2021/12/24 13:49:34;;;;;;;7.80;4.00;;;12.80;99.90;;;;;;5052316;28;20387;-76
2021/12/24 13:56:05;;;;;;;12.85;3.90;;;12.70;99.90;;;;;;5052231;28;20048;-76
2021/12/24 13:59:14;;;;;;;11.23;3.35;;;12.70;99.90;;;;;;5052106;28;20044;-75
2021/12/24 14:02:19;;;;;;;9.95;3.33;;;12.60;99.90;;;;;;5052804;28;20051;-76
2021/12/24 14:05:24;;;;;;;7.07;3.75;;;12.50;99.90;;;;;;5051966;28;20052;-75
2021/12/24 14:08:31;;;;;;;14.25;4.55;;;12.50;99.90;;;;;;5051361;28;20048;-76
2021/12/24 14:11:36;;;;;;;10.40;4.97;;;12.40;99.90;;;;;;5051205;28;20044;-76
2021/12/24 14:14:50;;;;;;;7.55;3.90;;;12.20;99.90;;;;;;5052056;28;20132;-77
2021/12/24 14:18:19;;;;;;;9.38;4.00;;;12.10;99.90;;;;;;5051289;28;20044;-76
2021/12/24 14:24:36;;;;;;;11.75;4.82;;;12.00;99.90;;;;;;5051047;28;20040;-76
2021/12/24 14:27:45;;;;;;;10.63;3.85;;;12.00;99.90;;;;;;5052101;28;20051;-76
2021/12/24 14:31:00;;;;;;;8.10;4.10;;;11.90;99.90;;;;;;5052245;28;20044;-77
2021/12/24 14:34:05;;;;;;;9.15;3.72;;;11.90;99.90;;;;;;5052335;28;20391;-76
2021/12/24 14:37:27;;;;;;;9.27;4.18;;;11.90;99.90;;;;;;5051484;28;20048;-76
2021/12/24 14:40:33;;;;;;;9.60;5.30;;;11.90;99.90;;;;;;5051636;28;20047;-75
2021/12/24 14:43:37;;;;;;;14.82;7.05;;;11.80;99.90;;;;;;5051924;28;20078;-76
2021/12/24 14:47:08;;;;;;;12.25;5.28;;;11.60;99.90;;;;;;5051615;28;20526;-76
2021/12/24 14:50:14;;;;;;;18.08;4.93;;;11.60;99.90;;;;;;5050408;28;20048;-76
2021/12/24 14:53:36;;;;;;;14.32;5.28;;;11.60;99.90;;;;;;5051614;28;20503;-75
2021/12/24 14:56:41;;;;;;;10.80;4.85;;;11.50;99.90;;;;;;5051393;28;20056;-75
2021/12/24 14:59:45;;;;;;;14.52;6.47;;;11.40;99.90;;;;;;5051208;28;20048;-76
2021/12/24 15:02:50;;;;;;;15.77;8.93;;;11.40;99.90;;;;;;5050610;28;20048;-76
2021/12/24 15:05:54;;;;;;;15.18;8.15;;;11.30;99.90;;;;;;5051374;28;20051;-76
2021/12/24 15:09:28;;;;;;;19.90;9.15;;;11.20;99.90;;;;;;5050854;28;20091;-76
2021/12/24 15:12:46;;;;;;;13.13;6.53;;;11.30;99.90;;;;;;5051207;28;20044;-76
2021/12/24 15:15:52;;;;;;;29.25;15.38;;;11.30;99.90;;;;;;5051100;28;20120;-76
2021/12/24 15:18:57;;;;;;;19.80;11.80;;;11.30;99.90;;;;;;5061467;28;20510;-76
2021/12/24 15:22:01;;;;;;;52.58;28.95;;;11.40;99.90;;;;;;5050837;28;20116;-76
2021/12/24 15:25:07;;;;;;;42.88;27.35;;;11.40;99.90;;;;;;5050519;28;20116;-76
2021/12/24 15:28:12;;;;;;;12.73;6.80;;;11.40;99.90;;;;;;5050262;28;20040;-76
2021/12/24 15:31:18;;;;;;;25.58;14.65;;;11.40;99.90;;;;;;5061463;28;20064;-76
2021/12/24 15:34:22;;;;;;;17.00;8.98;;;11.40;99.90;;;;;;5050748;28;20048;-76
2021/12/24 15:37:26;;;;;;;16.90;9.40;;;11.30;99.90;;;;;;5049519;28;20060;-76
2021/12/24 15:40:32;;;;;;;19.08;9.85;;;11.30;99.90;;;;;;5045495;28;20052;-77
2021/12/24 15:43:36;;;;;;;24.20;13.52;;;11.30;99.90;;;;;;5041684;28;20048;-76
2021/12/24 15:46:40;;;;;;;23.30;10.88;;;11.30;99.90;;;;;;5041626;28;20040;-76
2021/12/24 15:49:44;;;;;;;16.20;8.93;;;11.30;99.90;;;;;;5033534;28;20774;-76
2021/12/24 15:52:48;;;;;;;22.88;8.05;;;11.30;99.90;;;;;;5035077;28;20061;-76
2021/12/24 15:55:52;;;;;;;23.20;14.02;;;11.30;99.90;;;;;;5030098;28;20044;-77
2021/12/24 15:58:56;;;;;;;15.55;8.27;;;11.20;99.90;;;;;;5028709;28;20052;-76
2021/12/24 16:02:01;;;;;;;16.45;9.13;;;11.20;99.90;;;;;;5030772;28;20057;-76
2021/12/24 16:05:06;;;;;;;20.15;9.60;;;11.30;99.90;;;;;;5029591;28;20396;-77
2021/12/24 16:08:12;;;;;;;15.27;7.18;;;11.30;99.90;;;;;;5030029;28;20045;-76
2021/12/24 16:11:16;;;;;;;13.43;7.60;;;11.30;99.90;;;;;;5030599;28;20066;-76
2021/12/24 16:14:20;;;;;;;16.13;10.05;;;11.40;99.90;;;;;;5030514;28;20238;-76
2021/12/24 16:17:26;;;;;;;17.65;7.05;;;11.40;99.90;;;;;;5030092;28;20483;-76
2021/12/24 16:20:30;;;;;;;24.38;12.40;;;11.40;99.90;;;;;;5030289;28;20052;-77
2021/12/24 16:23:34;;;;;;;17.10;8.65;;;11.40;99.90;;;;;;5030046;28;20049;-76
2021/12/24 16:26:38;;;;;;;18.13;8.88;;;11.30;99.90;;;;;;5029285;28;20065;-76
2021/12/24 16:29:50;;;;;;;17.67;8.25;;;11.40;99.90;;;;;;5029514;28;20049;-76
2021/12/24 16:32:54;;;;;;;11.32;5.80;;;11.30;99.90;;;;;;5017656;28;20044;-76
2021/12/24 16:35:58;;;;;;;15.10;6.65;;;11.40;99.90;;;;;;5029925;28;20040;-76
2021/12/24 16:39:03;;;;;;;17.95;8.77;;;11.30;99.90;;;;;;5029291;28;20040;-77
2021/12/24 16:42:09;;;;;;;23.48;10.25;;;11.40;99.90;;;;;;5029962;28;20052;-76
2021/12/24 16:45:15;;;;;;;11.55;6.72;;;11.40;99.90;;;;;;5029628;28;20315;-76
2021/12/24 16:48:19;;;;;;;35.42;25.63;;;11.40;99.90;;;;;;5029185;28;20052;-76
2021/12/24 16:51:22;;;;;;;21.50;8.32;;;11.50;99.90;;;;;;5029766;28;20048;-77
2021/12/24 16:54:26;;;;;;;25.42;11.02;;;11.60;99.90;;;;;;5029517;28;20040;-76
2021/12/24 16:57:30;;;;;;;18.17;8.18;;;11.60;99.90;;;;;;5028847;28;20048;-76
2021/12/24 17:00:38;;;;;;;32.38;15.15;;;11.70;99.90;;;;;;5028705;28;20749;-76
2021/12/24 17:03:42;;;;;;;30.38;11.50;;;11.60;99.90;;;;;;5029384;28;20048;-76
2021/12/24 17:06:47;;;;;;;22.35;8.55;;;11.70;99.90;;;;;;5029805;28;20072;-76
2021/12/24 17:09:51;;;;;;;27.48;9.98;;;11.60;99.90;;;;;;5028899;28;20060;-77
2021/12/24 17:12:55;;;;;;;22.25;9.32;;;11.60;99.90;;;;;;5032233;28;20041;-76
2021/12/24 17:15:59;;;;;;;18.75;8.48;;;11.60;99.90;;;;;;5033487;28;20056;-76
2021/12/24 17:19:04;;;;;;;24.77;9.55;;;11.70;99.90;;;;;;5032744;28;20053;-76
2021/12/24 17:22:07;;;;;;;27.92;9.18;;;11.80;99.90;;;;;;5033526;28;20052;-74
2021/12/24 17:25:14;;;;;;;22.38;8.35;;;11.90;99.90;;;;;;5032801;28;20052;-75
2021/12/24 17:28:18;;;;;;;23.30;8.70;;;12.00;99.90;;;;;;5032864;28;20053;-76
2021/12/24 17:31:22;;;;;;;17.10;8.15;;;12.00;99.90;;;;;;5032890;28;20036;-76
2021/12/24 17:34:26;;;;;;;22.95;9.52;;;12.00;99.90;;;;;;5033130;28;20056;-77
2021/12/24 17:37:30;;;;;;;26.55;8.93;;;12.00;99.90;;;;;;5033206;28;20064;-75
2021/12/24 17:40:34;;;;;;;19.50;7.88;;;12.10;99.90;;;;;;5032836;28;20044;-75
2021/12/24 17:43:38;;;;;;;19.88;8.80;;;12.20;99.90;;;;;;5033084;28;20040;-75
2021/12/24 17:46:45;;;;;;;26.55;9.52;;;12.20;99.90;;;;;;5030760;28;20048;-76
2021/12/24 17:49:49;;;;;;;25.20;8.23;;;12.20;99.90;;;;;;5032347;28;20044;-76
2021/12/24 17:52:53;;;;;;;18.33;8.25;;;12.30;99.90;;;;;;5033187;28;20052;-75
2021/12/24 17:55:57;;;;;;;21.80;9.10;;;12.30;99.90;;;;;;5032950;28;20060;-75